sensor_id;sensor_type;location;lat;lon;timestamp;temperature;humidity
22469;DHT22;11401;50.792;4.352;2024-02-21T00:00:56;16.20;60.30
22469;DHT22;11401;50.792;4.352;2024-02-21T00:03:23;16.20;60.50
22469;DHT22;11401;50.792;4.352;2024-02-21T00:05:50;16.20;60.60
22469;DHT22;11401;50.792;4.352;2024-02-21T00:08:17;16.20;60.30
22469;DHT22;11401;50.792;4.352;2024-02-21T00:10:45;16.10;60.30
22469;DHT22;11401;50.792;4.352;2024-02-21T00:13:12;16.10;60.90
22469;DHT22;11401;50.792;4.352;2024-02-21T00:15:40;16.20;60.90
22469;DHT22;11401;50.792;4.352;2024-02-21T00:18:07;16.30;61.20
22469;DHT22;11401;50.792;4.352;2024-02-21T00:20:34;16.40;61.00
22469;DHT22;11401;50.792;4.352;2024-02-21T00:23:02;16.30;60.00
22469;DHT22;11401;50.792;4.352;2024-02-21T00:25:29;16.30;59.80
22469;DHT22;11401;50.792;4.352;2024-02-21T00:27:56;16.10;59.90
22469;DHT22;11401;50.792;4.352;2024-02-21T00:30:23;16.10;60.90
22469;DHT22;11401;50.792;4.352;2024-02-21T00:32:50;16.20;60.40
22469;DHT22;11401;50.792;4.352;2024-02-21T00:35:17;16.20;60.70
22469;DHT22;11401;50.792;4.352;2024-02-21T00:37:45;16.10;60.10
22469;DHT22;11401;50.792;4.352;2024-02-21T00:40:11;16.00;60.50
22469;DHT22;11401;50.792;4.352;2024-02-21T00:42:39;16.00;60.20
22469;DHT22;11401;50.792;4.352;2024-02-21T00:45:06;16.00;60.00
22469;DHT22;11401;50.792;4.352;2024-02-21T00:47:34;16.00;60.50
22469;DHT22;11401;50.792;4.352;2024-02-21T00:50:02;16.00;60.50
22469;DHT22;11401;50.792;4.352;2024-02-21T00:52:30;15.90;60.20
22469;DHT22;11401;50.792;4.352;2024-02-21T00:54:57;15.90;60.50
22469;DHT22;11401;50.792;4.352;2024-02-21T00:57:24;15.80;60.70
22469;DHT22;11401;50.792;4.352;2024-02-21T00:59:51;15.80;60.70
22469;DHT22;11401;50.792;4.352;2024-02-21T01:02:18;15.70;60.80
22469;DHT22;11401;50.792;4.352;2024-02-21T01:04:46;15.80;61.30
22469;DHT22;11401;50.792;4.352;2024-02-21T01:07:13;15.70;61.10
22469;DHT22;11401;50.792;4.352;2024-02-21T01:09:40;15.70;61.00
22469;DHT22;11401;50.792;4.352;2024-02-21T01:12:07;15.80;61.90
22469;DHT22;11401;50.792;4.352;2024-02-21T01:14:34;15.90;61.00
22469;DHT22;11401;50.792;4.352;2024-02-21T01:17:01;15.90;60.90
22469;DHT22;11401;50.792;4.352;2024-02-21T01:19:29;15.70;60.50
22469;DHT22;11401;50.792;4.352;2024-02-21T01:21:56;15.60;60.80
22469;DHT22;11401;50.792;4.352;2024-02-21T01:24:23;15.70;61.20
22469;DHT22;11401;50.792;4.352;2024-02-21T01:26:50;15.60;60.90
22469;DHT22;11401;50.792;4.352;2024-02-21T01:29:18;15.60;60.80
22469;DHT22;11401;50.792;4.352;2024-02-21T01:31:45;15.50;60.90
22469;DHT22;11401;50.792;4.352;2024-02-21T01:34:12;15.50;61.30
22469;DHT22;11401;50.792;4.352;2024-02-21T01:36:39;15.50;61.20
22469;DHT22;11401;50.792;4.352;2024-02-21T01:39:08;15.50;61.50
22469;DHT22;11401;50.792;4.352;2024-02-21T01:41:35;15.50;61.50
22469;DHT22;11401;50.792;4.352;2024-02-21T01:44:02;15.40;61.40
22469;DHT22;11401;50.792;4.352;2024-02-21T01:46:29;15.50;61.50
22469;DHT22;11401;50.792;4.352;2024-02-21T01:48:58;15.40;61.60
22469;DHT22;11401;50.792;4.352;2024-02-21T01:51:25;15.40;62.00
22469;DHT22;11401;50.792;4.352;2024-02-21T01:53:53;15.40;62.00
22469;DHT22;11401;50.792;4.352;2024-02-21T01:56:22;15.30;61.50
22469;DHT22;11401;50.792;4.352;2024-02-21T01:58:49;15.20;61.80
22469;DHT22;11401;50.792;4.352;2024-02-21T02:01:17;15.20;61.90
22469;DHT22;11401;50.792;4.352;2024-02-21T02:03:48;15.20;62.50
22469;DHT22;11401;50.792;4.352;2024-02-21T02:06:16;15.20;62.30
22469;DHT22;11401;50.792;4.352;2024-02-21T02:08:43;15.20;62.50
22469;DHT22;11401;50.792;4.352;2024-02-21T02:11:12;15.20;62.20
22469;DHT22;11401;50.792;4.352;2024-02-21T02:13:40;15.40;62.70
22469;DHT22;11401;50.792;4.352;2024-02-21T02:16:07;15.40;62.10
22469;DHT22;11401;50.792;4.352;2024-02-21T02:18:34;15.40;61.80
22469;DHT22;11401;50.792;4.352;2024-02-21T02:21:01;15.50;61.70
22469;DHT22;11401;50.792;4.352;2024-02-21T02:23:31;15.40;61.70
22469;DHT22;11401;50.792;4.352;2024-02-21T02:25:58;15.30;61.00
22469;DHT22;11401;50.792;4.352;2024-02-21T02:28:26;15.30;61.70
22469;DHT22;11401;50.792;4.352;2024-02-21T02:30:54;15.30;61.80
22469;DHT22;11401;50.792;4.352;2024-02-21T02:33:21;15.40;62.00
22469;DHT22;11401;50.792;4.352;2024-02-21T02:35:48;15.40;61.50
22469;DHT22;11401;50.792;4.352;2024-02-21T02:38:15;15.30;61.40
22469;DHT22;11401;50.792;4.352;2024-02-21T02:40:43;15.30;61.90
22469;DHT22;11401;50.792;4.352;2024-02-21T02:43:10;15.40;61.80
22469;DHT22;11401;50.792;4.352;2024-02-21T02:45:37;15.30;61.70
22469;DHT22;11401;50.792;4.352;2024-02-21T02:48:04;15.30;61.50
22469;DHT22;11401;50.792;4.352;2024-02-21T02:50:31;15.40;61.70
22469;DHT22;11401;50.792;4.352;2024-02-21T02:52:59;15.40;61.20
22469;DHT22;11401;50.792;4.352;2024-02-21T02:55:26;15.40;61.80
22469;DHT22;11401;50.792;4.352;2024-02-21T02:57:54;15.40;61.80
22469;DHT22;11401;50.792;4.352;2024-02-21T03:00:21;15.40;61.70
22469;DHT22;11401;50.792;4.352;2024-02-21T03:02:49;15.50;61.70
22469;DHT22;11401;50.792;4.352;2024-02-21T03:05:21;15.50;61.40
22469;DHT22;11401;50.792;4.352;2024-02-21T03:07:48;15.40;61.80
22469;DHT22;11401;50.792;4.352;2024-02-21T03:10:16;15.40;61.90
22469;DHT22;11401;50.792;4.352;2024-02-21T03:12:45;15.50;61.50
22469;DHT22;11401;50.792;4.352;2024-02-21T03:15:13;15.50;61.70
22469;DHT22;11401;50.792;4.352;2024-02-21T03:17:41;15.50;61.40
22469;DHT22;11401;50.792;4.352;2024-02-21T03:20:09;15.50;61.40
22469;DHT22;11401;50.792;4.352;2024-02-21T03:22:39;15.60;62.00
22469;DHT22;11401;50.792;4.352;2024-02-21T03:25:11;15.60;61.20
22469;DHT22;11401;50.792;4.352;2024-02-21T03:27:39;15.60;60.50
22469;DHT22;11401;50.792;4.352;2024-02-21T03:30:06;15.50;61.00
22469;DHT22;11401;50.792;4.352;2024-02-21T03:32:34;15.50;61.40
22469;DHT22;11401;50.792;4.352;2024-02-21T03:35:01;15.50;61.20
22469;DHT22;11401;50.792;4.352;2024-02-21T03:37:28;15.40;61.20
22469;DHT22;11401;50.792;4.352;2024-02-21T03:39:55;15.40;61.10
22469;DHT22;11401;50.792;4.352;2024-02-21T03:42:22;15.40;61.30
22469;DHT22;11401;50.792;4.352;2024-02-21T03:44:50;15.40;61.70
22469;DHT22;11401;50.792;4.352;2024-02-21T03:47:17;15.40;61.60
22469;DHT22;11401;50.792;4.352;2024-02-21T03:49:44;15.40;62.00
22469;DHT22;11401;50.792;4.352;2024-02-21T03:52:11;15.50;61.30
22469;DHT22;11401;50.792;4.352;2024-02-21T03:54:38;15.40;61.50
22469;DHT22;11401;50.792;4.352;2024-02-21T03:57:05;15.30;61.20
22469;DHT22;11401;50.792;4.352;2024-02-21T03:59:33;15.30;61.90
22469;DHT22;11401;50.792;4.352;2024-02-21T04:02:00;15.30;62.00
22469;DHT22;11401;50.792;4.352;2024-02-21T04:04:27;15.30;62.00
22469;DHT22;11401;50.792;4.352;2024-02-21T04:06:54;15.20;62.10
22469;DHT22;11401;50.792;4.352;2024-02-21T04:09:21;15.30;62.00
22469;DHT22;11401;50.792;4.352;2024-02-21T04:11:48;15.20;62.10
22469;DHT22;11401;50.792;4.352;2024-02-21T04:14:15;15.20;62.20
22469;DHT22;11401;50.792;4.352;2024-02-21T04:16:42;15.30;61.80
22469;DHT22;11401;50.792;4.352;2024-02-21T04:19:09;15.40;61.90
22469;DHT22;11401;50.792;4.352;2024-02-21T04:21:37;15.30;61.70
22469;DHT22;11401;50.792;4.352;2024-02-21T04:24:04;15.30;62.00
22469;DHT22;11401;50.792;4.352;2024-02-21T04:26:34;15.30;62.00
22469;DHT22;11401;50.792;4.352;2024-02-21T04:29:01;15.20;62.10
22469;DHT22;11401;50.792;4.352;2024-02-21T04:31:29;15.20;62.10
22469;DHT22;11401;50.792;4.352;2024-02-21T04:33:56;15.20;62.00
22469;DHT22;11401;50.792;4.352;2024-02-21T04:36:23;15.20;62.30
22469;DHT22;11401;50.792;4.352;2024-02-21T04:38:51;15.20;62.30
22469;DHT22;11401;50.792;4.352;2024-02-21T04:41:18;15.20;62.50
22469;DHT22;11401;50.792;4.352;2024-02-21T04:43:46;15.20;62.60
22469;DHT22;11401;50.792;4.352;2024-02-21T04:46:15;15.20;62.60
22469;DHT22;11401;50.792;4.352;2024-02-21T04:48:42;15.20;62.30
22469;DHT22;11401;50.792;4.352;2024-02-21T04:51:11;15.20;62.50
22469;DHT22;11401;50.792;4.352;2024-02-21T04:53:38;15.20;62.70
22469;DHT22;11401;50.792;4.352;2024-02-21T04:56:05;15.10;62.50
22469;DHT22;11401;50.792;4.352;2024-02-21T04:58:32;15.20;63.20
22469;DHT22;11401;50.792;4.352;2024-02-21T05:00:59;15.20;62.60
22469;DHT22;11401;50.792;4.352;2024-02-21T05:03:27;15.20;62.40
22469;DHT22;11401;50.792;4.352;2024-02-21T05:05:54;15.20;62.30
22469;DHT22;11401;50.792;4.352;2024-02-21T05:08:21;15.20;62.00
22469;DHT22;11401;50.792;4.352;2024-02-21T05:10:48;15.20;62.10
22469;DHT22;11401;50.792;4.352;2024-02-21T05:13:15;15.20;62.20
22469;DHT22;11401;50.792;4.352;2024-02-21T05:15:42;15.10;62.40
22469;DHT22;11401;50.792;4.352;2024-02-21T05:18:09;15.10;62.40
22469;DHT22;11401;50.792;4.352;2024-02-21T05:20:36;15.10;61.90
22469;DHT22;11401;50.792;4.352;2024-02-21T05:23:04;15.10;62.00
22469;DHT22;11401;50.792;4.352;2024-02-21T05:25:31;15.10;61.80
22469;DHT22;11401;50.792;4.352;2024-02-21T05:27:58;15.10;62.20
22469;DHT22;11401;50.792;4.352;2024-02-21T05:30:29;15.20;62.30
22469;DHT22;11401;50.792;4.352;2024-02-21T05:32:57;15.10;62.00
22469;DHT22;11401;50.792;4.352;2024-02-21T05:35:28;15.20;61.80
22469;DHT22;11401;50.792;4.352;2024-02-21T05:37:55;15.20;61.90
22469;DHT22;11401;50.792;4.352;2024-02-21T05:40:23;15.20;61.80
22469;DHT22;11401;50.792;4.352;2024-02-21T05:42:50;15.20;61.50
22469;DHT22;11401;50.792;4.352;2024-02-21T05:45:18;15.20;61.60
22469;DHT22;11401;50.792;4.352;2024-02-21T05:47:45;15.20;61.10
22469;DHT22;11401;50.792;4.352;2024-02-21T05:50:13;15.20;61.90
22469;DHT22;11401;50.792;4.352;2024-02-21T05:52:40;15.20;62.00
22469;DHT22;11401;50.792;4.352;2024-02-21T05:55:08;15.20;61.20
22469;DHT22;11401;50.792;4.352;2024-02-21T05:57:35;15.20;60.90
22469;DHT22;11401;50.792;4.352;2024-02-21T06:00:04;15.20;61.10
22469;DHT22;11401;50.792;4.352;2024-02-21T06:02:38;15.20;60.90
22469;DHT22;11401;50.792;4.352;2024-02-21T06:05:07;15.10;61.40
22469;DHT22;11401;50.792;4.352;2024-02-21T06:07:35;15.10;62.30
22469;DHT22;11401;50.792;4.352;2024-02-21T06:10:02;15.10;61.70
22469;DHT22;11401;50.792;4.352;2024-02-21T06:12:30;15.20;62.30
22469;DHT22;11401;50.792;4.352;2024-02-21T06:14:57;15.20;61.40
22469;DHT22;11401;50.792;4.352;2024-02-21T06:17:24;15.20;61.70
22469;DHT22;11401;50.792;4.352;2024-02-21T06:19:51;15.30;61.60
22469;DHT22;11401;50.792;4.352;2024-02-21T06:22:18;15.30;61.30
22469;DHT22;11401;50.792;4.352;2024-02-21T06:24:45;15.30;61.00
22469;DHT22;11401;50.792;4.352;2024-02-21T06:27:12;15.30;61.60
22469;DHT22;11401;50.792;4.352;2024-02-21T06:29:42;15.40;61.60
22469;DHT22;11401;50.792;4.352;2024-02-21T06:32:10;15.40;61.30
22469;DHT22;11401;50.792;4.352;2024-02-21T06:34:37;15.50;61.10
22469;DHT22;11401;50.792;4.352;2024-02-21T06:37:04;15.40;61.20
22469;DHT22;11401;50.792;4.352;2024-02-21T06:39:31;15.40;61.20
22469;DHT22;11401;50.792;4.352;2024-02-21T06:41:58;15.40;61.40
22469;DHT22;11401;50.792;4.352;2024-02-21T06:44:29;15.50;61.60
22469;DHT22;11401;50.792;4.352;2024-02-21T06:46:59;15.50;61.70
22469;DHT22;11401;50.792;4.352;2024-02-21T06:49:26;15.50;61.10
22469;DHT22;11401;50.792;4.352;2024-02-21T06:51:53;15.50;61.70
22469;DHT22;11401;50.792;4.352;2024-02-21T06:54:20;15.60;61.80
22469;DHT22;11401;50.792;4.352;2024-02-21T06:56:47;15.50;62.20
22469;DHT22;11401;50.792;4.352;2024-02-21T06:59:14;15.50;61.90
22469;DHT22;11401;50.792;4.352;2024-02-21T07:01:51;15.50;62.20
22469;DHT22;11401;50.792;4.352;2024-02-21T07:04:18;15.60;62.10
22469;DHT22;11401;50.792;4.352;2024-02-21T07:06:45;15.50;61.80
22469;DHT22;11401;50.792;4.352;2024-02-21T07:09:12;15.60;62.30
22469;DHT22;11401;50.792;4.352;2024-02-21T07:11:40;15.70;62.00
22469;DHT22;11401;50.792;4.352;2024-02-21T07:14:07;15.60;61.70
22469;DHT22;11401;50.792;4.352;2024-02-21T07:16:34;15.50;62.60
22469;DHT22;11401;50.792;4.352;2024-02-21T07:19:02;15.50;62.80
22469;DHT22;11401;50.792;4.352;2024-02-21T07:21:31;15.40;62.90
22469;DHT22;11401;50.792;4.352;2024-02-21T07:23:58;15.40;62.70
22469;DHT22;11401;50.792;4.352;2024-02-21T07:26:25;15.40;63.70
22469;DHT22;11401;50.792;4.352;2024-02-21T07:28:51;15.50;64.50
22469;DHT22;11401;50.792;4.352;2024-02-21T07:31:18;15.50;63.50
22469;DHT22;11401;50.792;4.352;2024-02-21T07:33:46;15.50;62.80
22469;DHT22;11401;50.792;4.352;2024-02-21T07:36:15;15.50;63.10
22469;DHT22;11401;50.792;4.352;2024-02-21T07:38:43;15.50;63.10
22469;DHT22;11401;50.792;4.352;2024-02-21T07:41:11;15.40;63.10
22469;DHT22;11401;50.792;4.352;2024-02-21T07:43:38;15.50;63.50
22469;DHT22;11401;50.792;4.352;2024-02-21T07:46:07;15.40;62.40
22469;DHT22;11401;50.792;4.352;2024-02-21T07:48:34;15.40;63.10
22469;DHT22;11401;50.792;4.352;2024-02-21T07:51:02;15.40;62.50
22469;DHT22;11401;50.792;4.352;2024-02-21T07:53:29;15.40;62.60
22469;DHT22;11401;50.792;4.352;2024-02-21T07:55:56;15.60;62.90
22469;DHT22;11401;50.792;4.352;2024-02-21T07:58:23;15.60;62.20
22469;DHT22;11401;50.792;4.352;2024-02-21T08:00:50;15.50;61.60
22469;DHT22;11401;50.792;4.352;2024-02-21T08:03:18;15.50;62.20
22469;DHT22;11401;50.792;4.352;2024-02-21T08:05:45;15.40;61.90
22469;DHT22;11401;50.792;4.352;2024-02-21T08:08:12;15.40;62.50
22469;DHT22;11401;50.792;4.352;2024-02-21T08:10:45;15.40;62.20
22469;DHT22;11401;50.792;4.352;2024-02-21T08:13:13;15.40;61.60
22469;DHT22;11401;50.792;4.352;2024-02-21T08:15:41;15.50;62.30
22469;DHT22;11401;50.792;4.352;2024-02-21T08:18:08;15.50;61.60
22469;DHT22;11401;50.792;4.352;2024-02-21T08:20:35;15.40;61.90
22469;DHT22;11401;50.792;4.352;2024-02-21T08:23:03;15.40;61.60
22469;DHT22;11401;50.792;4.352;2024-02-21T08:25:31;15.40;61.70
22469;DHT22;11401;50.792;4.352;2024-02-21T08:27:59;15.40;62.30
22469;DHT22;11401;50.792;4.352;2024-02-21T08:30:27;15.40;61.60
22469;DHT22;11401;50.792;4.352;2024-02-21T08:32:54;15.40;61.00
22469;DHT22;11401;50.792;4.352;2024-02-21T08:35:21;15.40;61.70
22469;DHT22;11401;50.792;4.352;2024-02-21T08:37:52;15.50;61.20
22469;DHT22;11401;50.792;4.352;2024-02-21T08:40:19;15.40;61.90
22469;DHT22;11401;50.792;4.352;2024-02-21T08:42:48;15.40;61.50
22469;DHT22;11401;50.792;4.352;2024-02-21T08:45:16;15.40;61.20
22469;DHT22;11401;50.792;4.352;2024-02-21T08:47:43;15.40;61.40
22469;DHT22;11401;50.792;4.352;2024-02-21T08:50:11;15.40;61.10
22469;DHT22;11401;50.792;4.352;2024-02-21T08:52:53;15.30;61.50
22469;DHT22;11401;50.792;4.352;2024-02-21T08:55:22;15.30;61.50
22469;DHT22;11401;50.792;4.352;2024-02-21T08:57:51;15.30;61.40
22469;DHT22;11401;50.792;4.352;2024-02-21T09:00:18;15.40;61.50
22469;DHT22;11401;50.792;4.352;2024-02-21T09:02:48;15.30;61.70
22469;DHT22;11401;50.792;4.352;2024-02-21T09:05:15;15.30;60.80
22469;DHT22;11401;50.792;4.352;2024-02-21T09:07:42;15.20;61.00
22469;DHT22;11401;50.792;4.352;2024-02-21T09:10:09;15.20;62.30
22469;DHT22;11401;50.792;4.352;2024-02-21T09:12:37;15.30;61.60
22469;DHT22;11401;50.792;4.352;2024-02-21T09:15:05;15.30;61.50
22469;DHT22;11401;50.792;4.352;2024-02-21T09:17:32;15.30;61.80
22469;DHT22;11401;50.792;4.352;2024-02-21T09:19:59;15.50;61.80
22469;DHT22;11401;50.792;4.352;2024-02-21T09:22:30;15.50;61.10
22469;DHT22;11401;50.792;4.352;2024-02-21T09:24:58;15.40;60.90
22469;DHT22;11401;50.792;4.352;2024-02-21T09:27:25;15.40;61.10
22469;DHT22;11401;50.792;4.352;2024-02-21T09:29:52;15.50;61.40
22469;DHT22;11401;50.792;4.352;2024-02-21T09:32:19;15.50;61.00
22469;DHT22;11401;50.792;4.352;2024-02-21T09:34:46;15.50;61.20
22469;DHT22;11401;50.792;4.352;2024-02-21T09:37:14;15.50;60.80
22469;DHT22;11401;50.792;4.352;2024-02-21T09:39:41;15.50;61.20
22469;DHT22;11401;50.792;4.352;2024-02-21T09:42:11;15.50;60.90
22469;DHT22;11401;50.792;4.352;2024-02-21T09:44:39;15.60;61.80
22469;DHT22;11401;50.792;4.352;2024-02-21T09:47:12;15.60;60.70
22469;DHT22;11401;50.792;4.352;2024-02-21T09:49:43;15.60;61.40
22469;DHT22;11401;50.792;4.352;2024-02-21T09:52:12;15.60;60.50
22469;DHT22;11401;50.792;4.352;2024-02-21T09:54:41;15.60;60.70
22469;DHT22;11401;50.792;4.352;2024-02-21T09:57:12;15.60;61.40
22469;DHT22;11401;50.792;4.352;2024-02-21T09:59:40;15.60;61.40
22469;DHT22;11401;50.792;4.352;2024-02-21T10:02:08;15.60;61.40
22469;DHT22;11401;50.792;4.352;2024-02-21T10:04:36;15.60;60.40
22469;DHT22;11401;50.792;4.352;2024-02-21T10:07:03;15.60;61.50
22469;DHT22;11401;50.792;4.352;2024-02-21T10:09:31;15.70;61.40
22469;DHT22;11401;50.792;4.352;2024-02-21T10:12:09;15.70;59.90
22469;DHT22;11401;50.792;4.352;2024-02-21T10:14:38;15.70;59.20
22469;DHT22;11401;50.792;4.352;2024-02-21T10:17:05;15.70;59.90
22469;DHT22;11401;50.792;4.352;2024-02-21T10:19:38;15.70;59.90
22469;DHT22;11401;50.792;4.352;2024-02-21T10:22:10;16.00;61.60
22469;DHT22;11401;50.792;4.352;2024-02-21T10:24:37;16.00;59.80
22469;DHT22;11401;50.792;4.352;2024-02-21T10:27:06;15.90;59.10
22469;DHT22;11401;50.792;4.352;2024-02-21T10:29:39;15.90;59.20
22469;DHT22;11401;50.792;4.352;2024-02-21T10:32:09;15.80;59.60
22469;DHT22;11401;50.792;4.352;2024-02-21T10:34:39;15.80;59.80
22469;DHT22;11401;50.792;4.352;2024-02-21T10:37:10;15.90;61.00
22469;DHT22;11401;50.792;4.352;2024-02-21T10:39:39;15.90;59.40
22469;DHT22;11401;50.792;4.352;2024-02-21T10:42:07;15.90;59.60
22469;DHT22;11401;50.792;4.352;2024-02-21T10:44:39;16.00;60.00
22469;DHT22;11401;50.792;4.352;2024-02-21T10:47:09;16.10;60.40
22469;DHT22;11401;50.792;4.352;2024-02-21T10:49:40;16.40;61.70
22469;DHT22;11401;50.792;4.352;2024-02-21T10:55:09;16.20;58.80
22469;DHT22;11401;50.792;4.352;2024-02-21T10:57:38;16.10;58.50
22469;DHT22;11401;50.792;4.352;2024-02-21T11:00:06;16.00;59.00
22469;DHT22;11401;50.792;4.352;2024-02-21T11:02:40;16.00;60.00
22469;DHT22;11401;50.792;4.352;2024-02-21T11:05:07;16.10;59.70
22469;DHT22;11401;50.792;4.352;2024-02-21T11:07:37;16.20;59.70
22469;DHT22;11401;50.792;4.352;2024-02-21T11:10:04;16.40;60.60
22469;DHT22;11401;50.792;4.352;2024-02-21T11:12:34;16.50;59.10
22469;DHT22;11401;50.792;4.352;2024-02-21T11:15:05;16.40;58.00
22469;DHT22;11401;50.792;4.352;2024-02-21T11:17:33;16.50;59.00
22469;DHT22;11401;50.792;4.352;2024-02-21T11:20:13;16.40;57.80
22469;DHT22;11401;50.792;4.352;2024-02-21T11:22:42;16.40;58.40
22469;DHT22;11401;50.792;4.352;2024-02-21T11:25:09;16.20;57.50
22469;DHT22;11401;50.792;4.352;2024-02-21T11:27:38;16.10;58.60
22469;DHT22;11401;50.792;4.352;2024-02-21T11:30:06;16.10;58.70
22469;DHT22;11401;50.792;4.352;2024-02-21T11:32:33;16.10;59.00
22469;DHT22;11401;50.792;4.352;2024-02-21T11:35:02;16.10;58.30
22469;DHT22;11401;50.792;4.352;2024-02-21T11:37:32;16.10;59.20
22469;DHT22;11401;50.792;4.352;2024-02-21T11:40:07;16.10;59.30
22469;DHT22;11401;50.792;4.352;2024-02-21T11:42:39;16.10;59.20
22469;DHT22;11401;50.792;4.352;2024-02-21T11:45:07;16.00;58.40
22469;DHT22;11401;50.792;4.352;2024-02-21T11:47:36;16.00;58.60
22469;DHT22;11401;50.792;4.352;2024-02-21T11:50:10;16.00;58.90
22469;DHT22;11401;50.792;4.352;2024-02-21T11:52:38;16.10;60.10
22469;DHT22;11401;50.792;4.352;2024-02-21T11:55:06;16.10;59.20
22469;DHT22;11401;50.792;4.352;2024-02-21T11:57:36;16.10;59.20
22469;DHT22;11401;50.792;4.352;2024-02-21T12:00:15;16.30;59.80
22469;DHT22;11401;50.792;4.352;2024-02-21T12:02:46;16.30;59.50
22469;DHT22;11401;50.792;4.352;2024-02-21T12:05:13;16.40;59.50
22469;DHT22;11401;50.792;4.352;2024-02-21T12:07:42;16.40;58.60
22469;DHT22;11401;50.792;4.352;2024-02-21T12:10:13;16.30;58.30
22469;DHT22;11401;50.792;4.352;2024-02-21T12:12:41;16.30;58.90
22469;DHT22;11401;50.792;4.352;2024-02-21T12:15:08;16.30;59.10
22469;DHT22;11401;50.792;4.352;2024-02-21T12:17:36;16.30;58.40
22469;DHT22;11401;50.792;4.352;2024-02-21T12:20:04;16.30;59.00
22469;DHT22;11401;50.792;4.352;2024-02-21T12:22:41;16.40;59.30
22469;DHT22;11401;50.792;4.352;2024-02-21T12:25:19;16.50;59.70
22469;DHT22;11401;50.792;4.352;2024-02-21T12:27:47;16.50;58.00
22469;DHT22;11401;50.792;4.352;2024-02-21T12:30:16;16.50;59.10
22469;DHT22;11401;50.792;4.352;2024-02-21T12:32:43;16.50;58.40
22469;DHT22;11401;50.792;4.352;2024-02-21T12:35:10;16.30;57.60
22469;DHT22;11401;50.792;4.352;2024-02-21T12:37:38;16.30;58.10
22469;DHT22;11401;50.792;4.352;2024-02-21T12:40:07;16.20;57.80
22469;DHT22;11401;50.792;4.352;2024-02-21T12:42:34;16.20;59.00
22469;DHT22;11401;50.792;4.352;2024-02-21T12:45:03;16.20;58.40
22469;DHT22;11401;50.792;4.352;2024-02-21T12:47:30;16.20;58.70
22469;DHT22;11401;50.792;4.352;2024-02-21T12:49:58;16.20;59.00
22469;DHT22;11401;50.792;4.352;2024-02-21T12:52:26;16.40;59.80
22469;DHT22;11401;50.792;4.352;2024-02-21T12:54:53;16.30;58.70
22469;DHT22;11401;50.792;4.352;2024-02-21T12:57:23;16.20;58.80
22469;DHT22;11401;50.792;4.352;2024-02-21T12:59:53;16.30;60.00
22469;DHT22;11401;50.792;4.352;2024-02-21T13:02:21;16.20;57.80
22469;DHT22;11401;50.792;4.352;2024-02-21T13:04:49;16.10;58.20
22469;DHT22;11401;50.792;4.352;2024-02-21T13:07:16;16.10;59.10
22469;DHT22;11401;50.792;4.352;2024-02-21T13:09:43;16.20;59.00
22469;DHT22;11401;50.792;4.352;2024-02-21T13:12:10;16.10;58.20
22469;DHT22;11401;50.792;4.352;2024-02-21T13:14:38;16.10;59.10
22469;DHT22;11401;50.792;4.352;2024-02-21T13:17:06;16.20;59.40
22469;DHT22;11401;50.792;4.352;2024-02-21T13:19:34;16.10;58.60
22469;DHT22;11401;50.792;4.352;2024-02-21T13:22:01;16.10;59.10
22469;DHT22;11401;50.792;4.352;2024-02-21T13:24:30;16.10;58.70
22469;DHT22;11401;50.792;4.352;2024-02-21T13:26:58;16.10;58.80
22469;DHT22;11401;50.792;4.352;2024-02-21T13:29:25;16.10;59.60
22469;DHT22;11401;50.792;4.352;2024-02-21T13:31:52;16.20;59.30
22469;DHT22;11401;50.792;4.352;2024-02-21T13:34:19;16.20;58.80
22469;DHT22;11401;50.792;4.352;2024-02-21T13:36:46;16.20;59.00
22469;DHT22;11401;50.792;4.352;2024-02-21T13:39:13;16.10;58.40
22469;DHT22;11401;50.792;4.352;2024-02-21T13:41:43;16.30;60.10
22469;DHT22;11401;50.792;4.352;2024-02-21T13:44:11;16.30;58.90
22469;DHT22;11401;50.792;4.352;2024-02-21T13:46:39;16.20;58.50
22469;DHT22;11401;50.792;4.352;2024-02-21T13:49:07;16.20;59.60
22469;DHT22;11401;50.792;4.352;2024-02-21T13:51:35;16.30;59.60
22469;DHT22;11401;50.792;4.352;2024-02-21T13:54:05;16.30;59.10
22469;DHT22;11401;50.792;4.352;2024-02-21T13:56:36;16.30;59.60
22469;DHT22;11401;50.792;4.352;2024-02-21T13:59:03;16.20;59.80
22469;DHT22;11401;50.792;4.352;2024-02-21T14:01:30;16.10;59.70
22469;DHT22;11401;50.792;4.352;2024-02-21T14:04:01;16.00;59.80
22469;DHT22;11401;50.792;4.352;2024-02-21T14:06:28;15.90;59.90
22469;DHT22;11401;50.792;4.352;2024-02-21T14:08:55;15.90;60.60
22469;DHT22;11401;50.792;4.352;2024-02-21T14:11:23;16.00;61.30
22469;DHT22;11401;50.792;4.352;2024-02-21T14:13:51;16.10;61.20
22469;DHT22;11401;50.792;4.352;2024-02-21T14:16:18;16.00;60.20
22469;DHT22;11401;50.792;4.352;2024-02-21T14:18:46;16.00;60.70
22469;DHT22;11401;50.792;4.352;2024-02-21T14:21:13;16.00;61.30
22469;DHT22;11401;50.792;4.352;2024-02-21T14:23:40;16.00;61.30
22469;DHT22;11401;50.792;4.352;2024-02-21T14:26:08;15.90;60.50
22469;DHT22;11401;50.792;4.352;2024-02-21T14:28:35;16.00;61.70
22469;DHT22;11401;50.792;4.352;2024-02-21T14:31:04;15.90;61.30
22469;DHT22;11401;50.792;4.352;2024-02-21T14:33:33;15.90;61.40
22469;DHT22;11401;50.792;4.352;2024-02-21T14:36:00;15.90;61.30
22469;DHT22;11401;50.792;4.352;2024-02-21T14:38:28;15.90;62.30
22469;DHT22;11401;50.792;4.352;2024-02-21T14:40:55;16.00;62.10
22469;DHT22;11401;50.792;4.352;2024-02-21T14:43:22;15.90;61.50
22469;DHT22;11401;50.792;4.352;2024-02-21T14:45:49;15.90;61.30
22469;DHT22;11401;50.792;4.352;2024-02-21T14:48:16;15.90;62.00
22469;DHT22;11401;50.792;4.352;2024-02-21T14:50:44;15.80;61.30
22469;DHT22;11401;50.792;4.352;2024-02-21T14:53:11;15.80;62.40
22469;DHT22;11401;50.792;4.352;2024-02-21T14:55:38;15.80;62.20
22469;DHT22;11401;50.792;4.352;2024-02-21T14:58:06;15.70;62.30
22469;DHT22;11401;50.792;4.352;2024-02-21T15:00:36;15.70;61.80
22469;DHT22;11401;50.792;4.352;2024-02-21T15:03:03;15.70;62.10
22469;DHT22;11401;50.792;4.352;2024-02-21T15:05:31;15.60;62.90
22469;DHT22;11401;50.792;4.352;2024-02-21T15:08:01;15.70;62.50
22469;DHT22;11401;50.792;4.352;2024-02-21T15:10:29;15.70;62.90
22469;DHT22;11401;50.792;4.352;2024-02-21T15:12:56;15.60;62.50
22469;DHT22;11401;50.792;4.352;2024-02-21T15:15:23;15.60;62.70
22469;DHT22;11401;50.792;4.352;2024-02-21T15:17:51;15.60;63.20
22469;DHT22;11401;50.792;4.352;2024-02-21T15:20:18;15.60;63.00
22469;DHT22;11401;50.792;4.352;2024-02-21T15:22:46;15.60;63.10
22469;DHT22;11401;50.792;4.352;2024-02-21T15:25:13;15.60;62.90
22469;DHT22;11401;50.792;4.352;2024-02-21T15:27:42;15.50;63.10
22469;DHT22;11401;50.792;4.352;2024-02-21T15:30:10;15.60;63.70
22469;DHT22;11401;50.792;4.352;2024-02-21T15:32:40;15.60;63.00
22469;DHT22;11401;50.792;4.352;2024-02-21T15:35:11;15.60;63.80
22469;DHT22;11401;50.792;4.352;2024-02-21T15:37:39;15.70;63.50